Meteo Giornale » Osservazioni meteo Italia » Paganella

ore: 13:55 - Osservazioni Meteo Paganella
Lat. 46° 9' N Lon. 11° 2' E Alt. 2125 metri s.l.m.

poco_nuvoloso Europe/Rome

14 °C

Poco Nuvoloso

Temp. 24 Ore

11 °C

17 °C

Nord

3.7 Km/h

Dew point 10 °C

Umidità 76 %

Visibilità  10 Km

Il sole sorge alle ore 06:55

Il sole tramonta alle ore 19:25

Data e Ora Cielo e Fenomeni T °C DP °C Um. % Pres. hPa Vis. km Vento km/h
Oggi h: 13:55 poco_nuvoloso Poco Nuvoloso 14 10 76 1023 10 N 3.7
Oggi h: 12:55 sereno Sereno 14 9 71 1023 10 S 7.4
Oggi h: 11:55 sereno Sereno 14 7 62 1023 10 S/SO 14.8
Oggi h: 10:55 sereno Sereno 14 5 54 1023 10 S 14.8
Oggi h: 09:55 sereno Sereno 13 4 54 1023 10 N 0
Oggi h: 08:55 sereno Sereno 12 1 46 1023 10 N 0
Oggi h: 07:55 sereno Sereno 12 -0 43 1023 10 N 3.7
Oggi h: 05:55 sereno Sereno 11 4 61 1024 10 N 7.4
Oggi h: 04:55 sereno Sereno 11 6 71 1024 10 N 7.4
Oggi h: 03:55 sereno Sereno 11 6 71 1024 10 N 5.5
Oggi h: 02:55 sereno Sereno 11 8 81 1025 10 N 5.5
Oggi h: 01:55 sereno Sereno 11 8 81 1025 10 N 5.5
Oggi h: 00:55 sereno Sereno 12 9 81 1026 10 N 5.5
Ieri h: 23:55 sereno Sereno 12 9 81 1026 10 N 5.5
Ieri h: 22:55 sereno Sereno 13 11 87 1026 10 N 9.3
Ieri h: 21:55 sereno Sereno 13 10 81 1026 10 N 5.5
Ieri h: 20:55 sereno Sereno 13 11 87 1025 10 N 0
Ieri h: 18:55 sereno Sereno 15 9 67 1025 10 S 14.8
Ieri h: 17:55 sereno Sereno 16 6 51 1025 10 S/SO 13
Ieri h: 16:55 sereno Sereno 17 7 51 1026 10 S 11.1
Ieri h: 15:55 sereno Sereno 17 7 51 1027 10 S 7.4